sensor_id;sensor_type;location;lat;lon;timestamp;P1;durP1;ratioP1;P2;durP2;ratioP2
71606;SDS011;60641;53.556;9.914;2023-03-11T00:00:20;13.40;;;6.50;;
71606;SDS011;60641;53.556;9.914;2023-03-11T00:03:08;12.70;;;6.50;;
71606;SDS011;60641;53.556;9.914;2023-03-11T00:05:37;13.40;;;6.60;;
71606;SDS011;60641;53.556;9.914;2023-03-11T00:08:04;12.40;;;6.70;;
71606;SDS011;60641;53.556;9.914;2023-03-11T00:10:34;16.00;;;6.30;;
71606;SDS011;60641;53.556;9.914;2023-03-11T00:13:03;12.70;;;6.80;;
71606;SDS011;60641;53.556;9.914;2023-03-11T00:15:30;11.20;;;6.10;;
71606;SDS011;60641;53.556;9.914;2023-03-11T00:17:57;12.30;;;6.50;;
71606;SDS011;60641;53.556;9.914;2023-03-11T00:20:25;12.00;;;6.20;;
71606;SDS011;60641;53.556;9.914;2023-03-11T00:22:53;12.60;;;6.50;;
71606;SDS011;60641;53.556;9.914;2023-03-11T00:25:19;12.50;;;6.80;;
71606;SDS011;60641;53.556;9.914;2023-03-11T00:27:47;12.80;;;6.60;;
71606;SDS011;60641;53.556;9.914;2023-03-11T00:30:14;13.10;;;7.50;;
71606;SDS011;60641;53.556;9.914;2023-03-11T00:32:41;14.60;;;7.10;;
71606;SDS011;60641;53.556;9.914;2023-03-11T00:35:11;13.20;;;7.20;;
71606;SDS011;60641;53.556;9.914;2023-03-11T00:37:39;14.00;;;7.50;;
71606;SDS011;60641;53.556;9.914;2023-03-11T00:40:05;13.80;;;7.30;;
71606;SDS011;60641;53.556;9.914;2023-03-11T00:42:36;14.70;;;7.90;;
71606;SDS011;60641;53.556;9.914;2023-03-11T00:45:02;14.00;;;7.80;;
71606;SDS011;60641;53.556;9.914;2023-03-11T00:47:29;14.20;;;7.60;;
71606;SDS011;60641;53.556;9.914;2023-03-11T00:49:55;14.70;;;7.30;;
71606;SDS011;60641;53.556;9.914;2023-03-11T00:52:22;14.10;;;7.60;;
71606;SDS011;60641;53.556;9.914;2023-03-11T00:54:48;13.90;;;7.40;;
71606;SDS011;60641;53.556;9.914;2023-03-11T00:57:14;13.90;;;7.40;;
71606;SDS011;60641;53.556;9.914;2023-03-11T00:59:41;14.90;;;7.70;;
71606;SDS011;60641;53.556;9.914;2023-03-11T01:02:07;14.60;;;7.70;;
71606;SDS011;60641;53.556;9.914;2023-03-11T01:04:34;13.50;;;7.50;;
71606;SDS011;60641;53.556;9.914;2023-03-11T01:07:00;13.30;;;7.40;;
71606;SDS011;60641;53.556;9.914;2023-03-11T01:09:27;14.30;;;7.60;;
71606;SDS011;60641;53.556;9.914;2023-03-11T01:11:53;13.60;;;7.50;;
71606;SDS011;60641;53.556;9.914;2023-03-11T01:14:20;14.00;;;7.60;;
71606;SDS011;60641;53.556;9.914;2023-03-11T01:16:46;14.00;;;7.80;;
71606;SDS011;60641;53.556;9.914;2023-03-11T01:19:13;12.50;;;7.00;;
71606;SDS011;60641;53.556;9.914;2023-03-11T01:21:40;12.30;;;6.80;;
71606;SDS011;60641;53.556;9.914;2023-03-11T01:24:08;14.20;;;7.10;;
71606;SDS011;60641;53.556;9.914;2023-03-11T01:26:34;13.50;;;6.50;;
71606;SDS011;60641;53.556;9.914;2023-03-11T01:29:01;12.30;;;6.70;;
71606;SDS011;60641;53.556;9.914;2023-03-11T01:31:27;12.90;;;6.70;;
71606;SDS011;60641;53.556;9.914;2023-03-11T01:33:53;12.90;;;6.20;;
71606;SDS011;60641;53.556;9.914;2023-03-11T01:36:20;12.70;;;7.00;;
71606;SDS011;60641;53.556;9.914;2023-03-11T01:38:46;12.50;;;6.90;;
71606;SDS011;60641;53.556;9.914;2023-03-11T01:41:13;13.10;;;6.90;;
71606;SDS011;60641;53.556;9.914;2023-03-11T01:48:55;14.20;;;6.70;;
71606;SDS011;60641;53.556;9.914;2023-03-11T01:51:24;13.20;;;6.70;;
71606;SDS011;60641;53.556;9.914;2023-03-11T01:53:53;13.20;;;7.30;;
71606;SDS011;60641;53.556;9.914;2023-03-11T01:56:21;14.60;;;7.20;;
71606;SDS011;60641;53.556;9.914;2023-03-11T01:58:49;12.60;;;6.80;;
71606;SDS011;60641;53.556;9.914;2023-03-11T02:01:17;12.90;;;6.70;;
71606;SDS011;60641;53.556;9.914;2023-03-11T02:03:45;12.40;;;6.80;;
71606;SDS011;60641;53.556;9.914;2023-03-11T02:06:13;14.20;;;6.80;;
71606;SDS011;60641;53.556;9.914;2023-03-11T02:08:41;11.50;;;6.50;;
71606;SDS011;60641;53.556;9.914;2023-03-11T02:11:09;13.10;;;7.00;;
71606;SDS011;60641;53.556;9.914;2023-03-11T02:13:38;12.90;;;6.60;;
71606;SDS011;60641;53.556;9.914;2023-03-11T02:16:06;13.40;;;6.80;;
71606;SDS011;60641;53.556;9.914;2023-03-11T02:18:33;12.10;;;6.60;;
71606;SDS011;60641;53.556;9.914;2023-03-11T02:23:45;12.10;;;6.50;;
71606;SDS011;60641;53.556;9.914;2023-03-11T02:26:24;12.50;;;6.70;;
71606;SDS011;60641;53.556;9.914;2023-03-11T02:28:55;12.00;;;6.40;;
71606;SDS011;60641;53.556;9.914;2023-03-11T02:31:23;13.40;;;6.50;;
71606;SDS011;60641;53.556;9.914;2023-03-11T02:33:50;11.20;;;6.10;;
71606;SDS011;60641;53.556;9.914;2023-03-11T02:36:32;13.20;;;6.70;;
71606;SDS011;60641;53.556;9.914;2023-03-11T02:39:03;13.00;;;6.80;;
71606;SDS011;60641;53.556;9.914;2023-03-11T02:41:31;12.80;;;6.50;;
71606;SDS011;60641;53.556;9.914;2023-03-11T02:43:58;13.20;;;6.90;;
71606;SDS011;60641;53.556;9.914;2023-03-11T02:46:25;12.90;;;6.40;;
71606;SDS011;60641;53.556;9.914;2023-03-11T02:48:52;12.50;;;6.80;;
71606;SDS011;60641;53.556;9.914;2023-03-11T02:51:19;14.90;;;6.60;;
71606;SDS011;60641;53.556;9.914;2023-03-11T02:53:50;12.20;;;6.40;;
71606;SDS011;60641;53.556;9.914;2023-03-11T02:56:18;12.90;;;6.30;;
71606;SDS011;60641;53.556;9.914;2023-03-11T02:58:45;12.00;;;6.50;;
71606;SDS011;60641;53.556;9.914;2023-03-11T03:01:11;13.60;;;6.20;;
71606;SDS011;60641;53.556;9.914;2023-03-11T03:03:38;12.00;;;6.70;;
71606;SDS011;60641;53.556;9.914;2023-03-11T03:06:04;12.40;;;6.10;;
71606;SDS011;60641;53.556;9.914;2023-03-11T03:08:31;11.60;;;6.50;;
71606;SDS011;60641;53.556;9.914;2023-03-11T03:10:57;11.40;;;5.80;;
71606;SDS011;60641;53.556;9.914;2023-03-11T03:13:25;12.90;;;6.20;;
71606;SDS011;60641;53.556;9.914;2023-03-11T03:15:52;12.10;;;6.60;;
71606;SDS011;60641;53.556;9.914;2023-03-11T03:18:18;13.90;;;6.60;;
71606;SDS011;60641;53.556;9.914;2023-03-11T03:20:45;13.20;;;6.40;;
71606;SDS011;60641;53.556;9.914;2023-03-11T03:23:11;13.20;;;6.20;;
71606;SDS011;60641;53.556;9.914;2023-03-11T03:25:40;13.00;;;6.50;;
71606;SDS011;60641;53.556;9.914;2023-03-11T03:28:09;12.20;;;6.60;;
71606;SDS011;60641;53.556;9.914;2023-03-11T03:30:37;11.60;;;6.10;;
71606;SDS011;60641;53.556;9.914;2023-03-11T03:33:03;12.80;;;5.90;;
71606;SDS011;60641;53.556;9.914;2023-03-11T03:35:31;11.40;;;6.20;;
71606;SDS011;60641;53.556;9.914;2023-03-11T03:37:57;12.10;;;6.70;;
71606;SDS011;60641;53.556;9.914;2023-03-11T03:40:25;11.90;;;6.20;;
71606;SDS011;60641;53.556;9.914;2023-03-11T03:42:51;11.70;;;5.60;;
71606;SDS011;60641;53.556;9.914;2023-03-11T03:45:18;11.70;;;6.10;;
71606;SDS011;60641;53.556;9.914;2023-03-11T03:47:45;10.10;;;5.60;;
71606;SDS011;60641;53.556;9.914;2023-03-11T03:50:11;11.30;;;5.30;;
71606;SDS011;60641;53.556;9.914;2023-03-11T03:52:38;10.70;;;5.60;;
71606;SDS011;60641;53.556;9.914;2023-03-11T03:55:05;11.00;;;5.80;;
71606;SDS011;60641;53.556;9.914;2023-03-11T03:57:31;10.30;;;5.40;;
71606;SDS011;60641;53.556;9.914;2023-03-11T03:59:58;10.70;;;5.40;;
71606;SDS011;60641;53.556;9.914;2023-03-11T04:02:24;10.70;;;5.60;;
71606;SDS011;60641;53.556;9.914;2023-03-11T04:04:51;10.40;;;5.10;;
71606;SDS011;60641;53.556;9.914;2023-03-11T04:07:17;11.30;;;5.40;;
71606;SDS011;60641;53.556;9.914;2023-03-11T04:09:44;10.30;;;4.90;;
71606;SDS011;60641;53.556;9.914;2023-03-11T04:12:12;11.70;;;5.20;;
71606;SDS011;60641;53.556;9.914;2023-03-11T04:14:40;10.20;;;4.90;;
71606;SDS011;60641;53.556;9.914;2023-03-11T04:17:07;10.50;;;5.40;;
71606;SDS011;60641;53.556;9.914;2023-03-11T04:19:35;12.30;;;5.10;;
71606;SDS011;60641;53.556;9.914;2023-03-11T04:22:02;11.60;;;5.40;;
71606;SDS011;60641;53.556;9.914;2023-03-11T04:24:28;10.40;;;5.20;;
71606;SDS011;60641;53.556;9.914;2023-03-11T04:26:55;10.60;;;5.20;;
71606;SDS011;60641;53.556;9.914;2023-03-11T04:29:21;11.70;;;5.50;;
71606;SDS011;60641;53.556;9.914;2023-03-11T04:31:48;9.30;;;4.90;;
71606;SDS011;60641;53.556;9.914;2023-03-11T04:34:14;11.10;;;5.20;;
71606;SDS011;60641;53.556;9.914;2023-03-11T04:36:40;10.70;;;5.00;;
71606;SDS011;60641;53.556;9.914;2023-03-11T04:39:07;10.20;;;4.90;;
71606;SDS011;60641;53.556;9.914;2023-03-11T04:41:33;11.80;;;5.10;;
71606;SDS011;60641;53.556;9.914;2023-03-11T04:44:00;12.10;;;5.20;;
71606;SDS011;60641;53.556;9.914;2023-03-11T04:46:26;11.30;;;5.30;;
71606;SDS011;60641;53.556;9.914;2023-03-11T04:48:53;10.40;;;4.90;;
71606;SDS011;60641;53.556;9.914;2023-03-11T04:51:19;11.00;;;5.10;;
71606;SDS011;60641;53.556;9.914;2023-03-11T04:53:46;11.70;;;5.20;;
71606;SDS011;60641;53.556;9.914;2023-03-11T04:56:12;10.10;;;5.00;;
71606;SDS011;60641;53.556;9.914;2023-03-11T04:58:38;10.90;;;4.90;;
71606;SDS011;60641;53.556;9.914;2023-03-11T05:01:05;10.60;;;4.90;;
71606;SDS011;60641;53.556;9.914;2023-03-11T05:03:31;9.90;;;4.60;;
71606;SDS011;60641;53.556;9.914;2023-03-11T05:05:58;9.10;;;4.60;;
71606;SDS011;60641;53.556;9.914;2023-03-11T05:08:25;8.90;;;4.20;;
71606;SDS011;60641;53.556;9.914;2023-03-11T05:10:52;8.90;;;4.50;;
71606;SDS011;60641;53.556;9.914;2023-03-11T05:13:18;10.80;;;4.50;;
71606;SDS011;60641;53.556;9.914;2023-03-11T05:15:45;10.20;;;4.70;;
71606;SDS011;60641;53.556;9.914;2023-03-11T05:18:12;10.70;;;4.70;;
71606;SDS011;60641;53.556;9.914;2023-03-11T05:20:39;9.40;;;5.00;;
71606;SDS011;60641;53.556;9.914;2023-03-11T05:23:06;10.20;;;4.40;;
71606;SDS011;60641;53.556;9.914;2023-03-11T05:25:32;11.70;;;4.80;;
71606;SDS011;60641;53.556;9.914;2023-03-11T05:28:00;10.70;;;4.80;;
71606;SDS011;60641;53.556;9.914;2023-03-11T05:30:27;11.50;;;5.20;;
71606;SDS011;60641;53.556;9.914;2023-03-11T05:32:53;10.70;;;4.70;;
71606;SDS011;60641;53.556;9.914;2023-03-11T05:35:21;12.50;;;5.40;;
71606;SDS011;60641;53.556;9.914;2023-03-11T05:37:48;10.60;;;5.40;;
71606;SDS011;60641;53.556;9.914;2023-03-11T05:40:18;10.10;;;4.80;;
71606;SDS011;60641;53.556;9.914;2023-03-11T05:42:46;10.30;;;4.90;;
71606;SDS011;60641;53.556;9.914;2023-03-11T05:45:13;11.70;;;4.70;;
71606;SDS011;60641;53.556;9.914;2023-03-11T05:47:39;10.10;;;4.80;;
71606;SDS011;60641;53.556;9.914;2023-03-11T05:50:09;10.40;;;5.10;;
71606;SDS011;60641;53.556;9.914;2023-03-11T05:52:36;10.90;;;4.70;;
71606;SDS011;60641;53.556;9.914;2023-03-11T05:55:03;10.20;;;4.70;;
71606;SDS011;60641;53.556;9.914;2023-03-11T05:57:30;10.70;;;5.00;;
71606;SDS011;60641;53.556;9.914;2023-03-11T05:59:56;11.60;;;4.70;;
71606;SDS011;60641;53.556;9.914;2023-03-11T06:02:23;10.30;;;4.80;;
71606;SDS011;60641;53.556;9.914;2023-03-11T06:04:49;10.50;;;4.80;;
71606;SDS011;60641;53.556;9.914;2023-03-11T06:07:16;11.00;;;4.90;;
71606;SDS011;60641;53.556;9.914;2023-03-11T06:09:42;10.90;;;5.00;;
71606;SDS011;60641;53.556;9.914;2023-03-11T06:12:09;11.10;;;4.80;;
71606;SDS011;60641;53.556;9.914;2023-03-11T06:14:35;11.00;;;5.00;;
71606;SDS011;60641;53.556;9.914;2023-03-11T06:17:03;11.30;;;4.60;;
71606;SDS011;60641;53.556;9.914;2023-03-11T06:19:30;10.30;;;5.00;;
71606;SDS011;60641;53.556;9.914;2023-03-11T06:21:56;11.10;;;4.80;;
71606;SDS011;60641;53.556;9.914;2023-03-11T06:24:23;12.10;;;5.00;;
71606;SDS011;60641;53.556;9.914;2023-03-11T06:26:50;11.80;;;5.00;;
71606;SDS011;60641;53.556;9.914;2023-03-11T06:29:17;11.20;;;4.60;;
71606;SDS011;60641;53.556;9.914;2023-03-11T06:31:44;11.20;;;5.20;;
71606;SDS011;60641;53.556;9.914;2023-03-11T06:34:11;10.50;;;4.60;;
71606;SDS011;60641;53.556;9.914;2023-03-11T06:36:37;9.90;;;4.40;;
71606;SDS011;60641;53.556;9.914;2023-03-11T06:39:04;11.30;;;4.60;;
71606;SDS011;60641;53.556;9.914;2023-03-11T06:41:32;9.10;;;4.10;;
71606;SDS011;60641;53.556;9.914;2023-03-11T06:43:59;10.80;;;4.60;;
71606;SDS011;60641;53.556;9.914;2023-03-11T06:46:26;9.90;;;4.50;;
71606;SDS011;60641;53.556;9.914;2023-03-11T06:48:52;10.50;;;4.50;;
71606;SDS011;60641;53.556;9.914;2023-03-11T06:51:19;9.60;;;4.60;;
71606;SDS011;60641;53.556;9.914;2023-03-11T06:53:50;10.10;;;4.50;;
71606;SDS011;60641;53.556;9.914;2023-03-11T06:56:18;10.60;;;4.50;;
71606;SDS011;60641;53.556;9.914;2023-03-11T06:58:45;10.70;;;4.60;;
71606;SDS011;60641;53.556;9.914;2023-03-11T07:01:15;9.60;;;4.30;;
71606;SDS011;60641;53.556;9.914;2023-03-11T07:03:44;10.00;;;4.40;;
71606;SDS011;60641;53.556;9.914;2023-03-11T07:06:15;10.10;;;4.30;;
71606;SDS011;60641;53.556;9.914;2023-03-11T07:08:45;9.60;;;4.50;;
71606;SDS011;60641;53.556;9.914;2023-03-11T07:11:13;9.10;;;4.40;;
71606;SDS011;60641;53.556;9.914;2023-03-11T07:13:42;9.40;;;4.30;;
71606;SDS011;60641;53.556;9.914;2023-03-11T07:16:10;9.30;;;4.10;;
71606;SDS011;60641;53.556;9.914;2023-03-11T07:18:38;9.50;;;4.30;;
71606;SDS011;60641;53.556;9.914;2023-03-11T07:21:05;9.20;;;4.50;;
71606;SDS011;60641;53.556;9.914;2023-03-11T07:23:33;11.30;;;4.90;;
71606;SDS011;60641;53.556;9.914;2023-03-11T07:26:00;9.50;;;4.20;;
71606;SDS011;60641;53.556;9.914;2023-03-11T07:28:27;9.20;;;4.40;;
71606;SDS011;60641;53.556;9.914;2023-03-11T07:30:54;10.70;;;4.60;;
71606;SDS011;60641;53.556;9.914;2023-03-11T07:33:20;10.20;;;4.50;;
71606;SDS011;60641;53.556;9.914;2023-03-11T07:35:49;10.60;;;4.50;;
71606;SDS011;60641;53.556;9.914;2023-03-11T07:38:16;11.60;;;4.90;;
71606;SDS011;60641;53.556;9.914;2023-03-11T07:40:43;10.90;;;4.80;;
71606;SDS011;60641;53.556;9.914;2023-03-11T07:43:09;10.90;;;4.90;;
71606;SDS011;60641;53.556;9.914;2023-03-11T07:45:36;10.00;;;4.40;;
71606;SDS011;60641;53.556;9.914;2023-03-11T07:48:03;10.60;;;4.80;;
71606;SDS011;60641;53.556;9.914;2023-03-11T07:50:30;9.60;;;4.00;;
71606;SDS011;60641;53.556;9.914;2023-03-11T07:52:56;9.90;;;4.40;;
71606;SDS011;60641;53.556;9.914;2023-03-11T07:55:23;11.00;;;4.30;;
71606;SDS011;60641;53.556;9.914;2023-03-11T07:57:49;14.80;;;4.70;;
71606;SDS011;60641;53.556;9.914;2023-03-11T08:00:17;8.40;;;3.90;;
71606;SDS011;60641;53.556;9.914;2023-03-11T08:02:44;9.60;;;3.70;;
71606;SDS011;60641;53.556;9.914;2023-03-11T08:05:10;10.30;;;3.80;;
71606;SDS011;60641;53.556;9.914;2023-03-11T08:07:37;10.70;;;3.60;;
71606;SDS011;60641;53.556;9.914;2023-03-11T08:10:04;9.00;;;3.20;;
71606;SDS011;60641;53.556;9.914;2023-03-11T08:12:31;8.80;;;3.40;;
71606;SDS011;60641;53.556;9.914;2023-03-11T08:14:58;8.80;;;3.60;;
71606;SDS011;60641;53.556;9.914;2023-03-11T08:17:25;9.10;;;3.70;;
71606;SDS011;60641;53.556;9.914;2023-03-11T08:19:51;7.80;;;3.30;;
71606;SDS011;60641;53.556;9.914;2023-03-11T08:22:18;8.50;;;3.40;;
71606;SDS011;60641;53.556;9.914;2023-03-11T08:24:45;9.50;;;3.10;;
71606;SDS011;60641;53.556;9.914;2023-03-11T08:27:11;8.80;;;3.00;;
71606;SDS011;60641;53.556;9.914;2023-03-11T08:29:38;7.20;;;2.70;;
71606;SDS011;60641;53.556;9.914;2023-03-11T08:32:05;5.90;;;2.20;;
71606;SDS011;60641;53.556;9.914;2023-03-11T08:34:31;7.40;;;2.70;;
71606;SDS011;60641;53.556;9.914;2023-03-11T08:37:00;9.10;;;2.70;;
71606;SDS011;60641;53.556;9.914;2023-03-11T08:39:26;7.40;;;2.40;;
71606;SDS011;60641;53.556;9.914;2023-03-11T08:41:53;7.70;;;2.80;;
71606;SDS011;60641;53.556;9.914;2023-03-11T08:44:20;6.90;;;2.50;;
71606;SDS011;60641;53.556;9.914;2023-03-11T08:46:46;8.00;;;2.60;;
71606;SDS011;60641;53.556;9.914;2023-03-11T08:49:13;9.80;;;2.50;;
71606;SDS011;60641;53.556;9.914;2023-03-11T08:51:39;6.80;;;2.80;;
71606;SDS011;60641;53.556;9.914;2023-03-11T08:54:06;12.60;;;2.70;;
71606;SDS011;60641;53.556;9.914;2023-03-11T08:56:32;6.90;;;2.40;;
71606;SDS011;60641;53.556;9.914;2023-03-11T08:58:59;10.40;;;2.90;;
71606;SDS011;60641;53.556;9.914;2023-03-11T09:01:26;7.00;;;2.20;;
71606;SDS011;60641;53.556;9.914;2023-03-11T09:03:54;7.80;;;2.00;;
71606;SDS011;60641;53.556;9.914;2023-03-11T09:06:21;6.10;;;2.00;;
71606;SDS011;60641;53.556;9.914;2023-03-11T09:08:48;6.10;;;2.40;;
71606;SDS011;60641;53.556;9.914;2023-03-11T09:11:15;6.60;;;2.10;;
71606;SDS011;60641;53.556;9.914;2023-03-11T09:13:42;7.60;;;1.60;;
71606;SDS011;60641;53.556;9.914;2023-03-11T09:16:16;8.00;;;2.30;;
71606;SDS011;60641;53.556;9.914;2023-03-11T09:18:44;6.50;;;2.00;;
71606;SDS011;60641;53.556;9.914;2023-03-11T09:21:11;4.60;;;1.50;;
71606;SDS011;60641;53.556;9.914;2023-03-11T09:23:38;7.20;;;1.60;;
71606;SDS011;60641;53.556;9.914;2023-03-11T09:26:05;6.50;;;1.70;;
71606;SDS011;60641;53.556;9.914;2023-03-11T09:28:32;5.70;;;1.40;;
71606;SDS011;60641;53.556;9.914;2023-03-11T09:30:58;7.20;;;1.50;;
71606;SDS011;60641;53.556;9.914;2023-03-11T09:33:25;5.30;;;1.30;;
71606;SDS011;60641;53.556;9.914;2023-03-11T09:35:51;5.20;;;1.20;;
71606;SDS011;60641;53.556;9.914;2023-03-11T09:38:18;5.00;;;1.30;;
71606;SDS011;60641;53.556;9.914;2023-03-11T09:40:56;5.30;;;1.20;;
71606;SDS011;60641;53.556;9.914;2023-03-11T09:51:33;5.10;;;1.50;;
71606;SDS011;60641;53.556;9.914;2023-03-11T09:54:04;5.30;;;1.60;;
71606;SDS011;60641;53.556;9.914;2023-03-11T09:56:34;5.40;;;1.60;;
71606;SDS011;60641;53.556;9.914;2023-03-11T09:59:05;8.00;;;2.00;;
71606;SDS011;60641;53.556;9.914;2023-03-11T10:01:35;5.60;;;1.50;;
71606;SDS011;60641;53.556;9.914;2023-03-11T10:04:12;7.20;;;2.30;;
71606;SDS011;60641;53.556;9.914;2023-03-11T10:06:41;7.70;;;2.50;;
71606;SDS011;60641;53.556;9.914;2023-03-11T10:09:28;7.60;;;2.20;;
71606;SDS011;60641;53.556;9.914;2023-03-11T10:17:23;7.80;;;2.10;;
71606;SDS011;60641;53.556;9.914;2023-03-11T10:25:50;8.40;;;2.00;;
71606;SDS011;60641;53.556;9.914;2023-03-11T10:28:19;6.80;;;2.10;;
71606;SDS011;60641;53.556;9.914;2023-03-11T10:31:00;4.60;;;1.50;;
71606;SDS011;60641;53.556;9.914;2023-03-11T10:33:36;7.20;;;2.00;;
71606;SDS011;60641;53.556;9.914;2023-03-11T10:36:08;6.50;;;2.10;;
71606;SDS011;60641;53.556;9.914;2023-03-11T10:38:41;8.70;;;2.20;;
71606;SDS011;60641;53.556;9.914;2023-03-11T10:41:17;6.40;;;1.80;;
71606;SDS011;60641;53.556;9.914;2023-03-11T10:43:53;7.90;;;1.70;;
71606;SDS011;60641;53.556;9.914;2023-03-11T10:46:25;7.20;;;1.80;;
71606;SDS011;60641;53.556;9.914;2023-03-11T10:48:53;6.20;;;2.20;;
71606;SDS011;60641;53.556;9.914;2023-03-11T10:51:21;6.80;;;1.80;;
71606;SDS011;60641;53.556;9.914;2023-03-11T10:53:59;7.30;;;1.90;;
71606;SDS011;60641;53.556;9.914;2023-03-11T10:56:31;6.70;;;1.90;;
71606;SDS011;60641;53.556;9.914;2023-03-11T10:58:59;7.60;;;1.80;;
71606;SDS011;60641;53.556;9.914;2023-03-11T11:01:26;8.20;;;2.20;;
71606;SDS011;60641;53.556;9.914;2023-03-11T11:03:54;6.60;;;1.80;;
71606;SDS011;60641;53.556;9.914;2023-03-11T11:09:15;7.00;;;2.30;;
71606;SDS011;60641;53.556;9.914;2023-03-11T11:12:04;10.60;;;3.00;;
71606;SDS011;60641;53.556;9.914;2023-03-11T11:14:42;8.70;;;2.20;;
71606;SDS011;60641;53.556;9.914;2023-03-11T11:17:22;7.10;;;2.30;;
71606;SDS011;60641;53.556;9.914;2023-03-11T11:19:50;8.00;;;2.70;;
71606;SDS011;60641;53.556;9.914;2023-03-11T11:22:21;7.40;;;2.20;;
71606;SDS011;60641;53.556;9.914;2023-03-11T11:24:48;8.30;;;2.10;;
71606;SDS011;60641;53.556;9.914;2023-03-11T11:32:48;6.90;;;2.00;;
71606;SDS011;60641;53.556;9.914;2023-03-11T11:35:19;9.50;;;1.90;;
71606;SDS011;60641;53.556;9.914;2023-03-11T11:37:48;6.00;;;1.60;;
71606;SDS011;60641;53.556;9.914;2023-03-11T11:40:20;5.30;;;1.10;;
71606;SDS011;60641;53.556;9.914;2023-03-11T11:42:51;7.30;;;1.60;;
71606;SDS011;60641;53.556;9.914;2023-03-11T11:47:53;7.60;;;1.60;;
71606;SDS011;60641;53.556;9.914;2023-03-11T11:50:27;5.40;;;1.20;;
71606;SDS011;60641;53.556;9.914;2023-03-11T11:55:46;6.90;;;1.10;;
71606;SDS011;60641;53.556;9.914;2023-03-11T11:58:14;7.90;;;0.90;;
71606;SDS011;60641;53.556;9.914;2023-03-11T12:06:34;4.30;;;0.60;;
71606;SDS011;60641;53.556;9.914;2023-03-11T12:14:10;5.30;;;0.70;;
71606;SDS011;60641;53.556;9.914;2023-03-11T12:16:49;4.10;;;0.60;;
71606;SDS011;60641;53.556;9.914;2023-03-11T12:27:58;4.10;;;0.50;;
71606;SDS011;60641;53.556;9.914;2023-03-11T12:30:39;7.40;;;1.00;;
71606;SDS011;60641;53.556;9.914;2023-03-11T12:36:03;5.90;;;1.10;;
71606;SDS011;60641;53.556;9.914;2023-03-11T12:38:38;12.00;;;1.90;;
71606;SDS011;60641;53.556;9.914;2023-03-11T12:41:07;5.70;;;1.00;;
71606;SDS011;60641;53.556;9.914;2023-03-11T12:46:19;18.30;;;1.90;;
71606;SDS011;60641;53.556;9.914;2023-03-11T12:48:47;4.40;;;1.00;;
71606;SDS011;60641;53.556;9.914;2023-03-11T12:53:52;4.60;;;0.80;;
71606;SDS011;60641;53.556;9.914;2023-03-11T13:01:46;6.50;;;1.30;;
71606;SDS011;60641;53.556;9.914;2023-03-11T13:07:21;6.10;;;0.70;;
71606;SDS011;60641;53.556;9.914;2023-03-11T13:10:01;5.90;;;0.70;;
71606;SDS011;60641;53.556;9.914;2023-03-11T13:12:44;4.70;;;0.70;;
71606;SDS011;60641;53.556;9.914;2023-03-11T13:20:57;5.90;;;0.60;;
71606;SDS011;60641;53.556;9.914;2023-03-11T13:23:26;3.90;;;0.80;;
71606;SDS011;60641;53.556;9.914;2023-03-11T13:32:08;5.90;;;1.40;;
71606;SDS011;60641;53.556;9.914;2023-03-11T13:34:51;5.30;;;0.80;;
71606;SDS011;60641;53.556;9.914;2023-03-11T13:37:42;4.60;;;0.60;;
71606;SDS011;60641;53.556;9.914;2023-03-11T13:43:02;7.20;;;0.80;;
71606;SDS011;60641;53.556;9.914;2023-03-11T13:45:31;6.10;;;1.10;;
71606;SDS011;60641;53.556;9.914;2023-03-11T13:48:19;5.80;;;1.20;;
71606;SDS011;60641;53.556;9.914;2023-03-11T13:50:52;3.40;;;0.70;;
71606;SDS011;60641;53.556;9.914;2023-03-11T13:53:23;7.60;;;1.20;;
71606;SDS011;60641;53.556;9.914;2023-03-11T13:55:54;9.50;;;1.40;;
71606;SDS011;60641;53.556;9.914;2023-03-11T13:58:21;6.50;;;0.90;;
71606;SDS011;60641;53.556;9.914;2023-03-11T14:00:50;8.90;;;1.00;;
71606;SDS011;60641;53.556;9.914;2023-03-11T14:03:19;8.60;;;1.40;;
71606;SDS011;60641;53.556;9.914;2023-03-11T14:05:48;7.30;;;0.90;;
71606;SDS011;60641;53.556;9.914;2023-03-11T14:13:23;4.40;;;0.50;;
71606;SDS011;60641;53.556;9.914;2023-03-11T14:18:34;4.00;;;0.60;;
71606;SDS011;60641;53.556;9.914;2023-03-11T14:21:00;4.00;;;0.60;;
71606;SDS011;60641;53.556;9.914;2023-03-11T14:23:32;6.40;;;0.70;;
71606;SDS011;60641;53.556;9.914;2023-03-11T14:26:07;3.80;;;0.60;;
71606;SDS011;60641;53.556;9.914;2023-03-11T14:28:39;4.20;;;0.60;;
71606;SDS011;60641;53.556;9.914;2023-03-11T14:31:06;2.60;;;0.30;;
71606;SDS011;60641;53.556;9.914;2023-03-11T14:33:33;6.60;;;0.50;;
71606;SDS011;60641;53.556;9.914;2023-03-11T14:36:03;1.90;;;0.60;;
71606;SDS011;60641;53.556;9.914;2023-03-11T14:38:32;4.10;;;0.50;;
71606;SDS011;60641;53.556;9.914;2023-03-11T14:40:59;3.70;;;0.50;;
71606;SDS011;60641;53.556;9.914;2023-03-11T14:43:28;4.60;;;0.40;;
71606;SDS011;60641;53.556;9.914;2023-03-11T14:45:58;3.20;;;0.50;;
71606;SDS011;60641;53.556;9.914;2023-03-11T14:48:45;3.80;;;0.50;;
71606;SDS011;60641;53.556;9.914;2023-03-11T14:51:13;4.50;;;0.60;;
71606;SDS011;60641;53.556;9.914;2023-03-11T14:53:52;4.30;;;0.50;;
71606;SDS011;60641;53.556;9.914;2023-03-11T14:56:28;6.20;;;0.70;;
71606;SDS011;60641;53.556;9.914;2023-03-11T15:01:48;6.10;;;0.70;;
71606;SDS011;60641;53.556;9.914;2023-03-11T15:06:54;4.10;;;0.60;;
71606;SDS011;60641;53.556;9.914;2023-03-11T15:09:22;3.80;;;0.70;;
71606;SDS011;60641;53.556;9.914;2023-03-11T15:11:59;5.90;;;0.90;;
71606;SDS011;60641;53.556;9.914;2023-03-11T15:14:27;4.40;;;0.60;;
71606;SDS011;60641;53.556;9.914;2023-03-11T15:17:13;6.30;;;0.90;;
71606;SDS011;60641;53.556;9.914;2023-03-11T15:19:41;5.70;;;0.70;;
71606;SDS011;60641;53.556;9.914;2023-03-11T15:22:21;5.90;;;0.80;;
71606;SDS011;60641;53.556;9.914;2023-03-11T15:24:57;5.00;;;0.80;;
71606;SDS011;60641;53.556;9.914;2023-03-11T15:27:31;6.20;;;0.80;;
71606;SDS011;60641;53.556;9.914;2023-03-11T15:29:59;3.50;;;0.50;;
71606;SDS011;60641;53.556;9.914;2023-03-11T15:35:24;5.80;;;0.70;;
71606;SDS011;60641;53.556;9.914;2023-03-11T15:38:11;2.60;;;0.50;;
71606;SDS011;60641;53.556;9.914;2023-03-11T15:40:57;5.00;;;0.70;;
71606;SDS011;60641;53.556;9.914;2023-03-11T15:43:27;4.80;;;0.70;;
71606;SDS011;60641;53.556;9.914;2023-03-11T15:45:55;5.60;;;0.70;;
71606;SDS011;60641;53.556;9.914;2023-03-11T15:48:23;5.70;;;0.80;;
71606;SDS011;60641;53.556;9.914;2023-03-11T15:50:51;8.10;;;0.90;;
71606;SDS011;60641;53.556;9.914;2023-03-11T15:53:19;6.20;;;0.80;;
71606;SDS011;60641;53.556;9.914;2023-03-11T15:55:46;6.30;;;1.10;;
71606;SDS011;60641;53.556;9.914;2023-03-11T15:58:15;5.70;;;0.70;;
71606;SDS011;60641;53.556;9.914;2023-03-11T16:00:50;4.10;;;0.60;;
71606;SDS011;60641;53.556;9.914;2023-03-11T16:03:18;4.10;;;0.60;;
71606;SDS011;60641;53.556;9.914;2023-03-11T16:05:45;3.10;;;0.60;;
71606;SDS011;60641;53.556;9.914;2023-03-11T16:08:12;4.30;;;0.60;;
71606;SDS011;60641;53.556;9.914;2023-03-11T16:10:38;3.90;;;0.50;;
71606;SDS011;60641;53.556;9.914;2023-03-11T16:13:05;3.60;;;0.80;;
71606;SDS011;60641;53.556;9.914;2023-03-11T16:15:33;6.80;;;0.90;;
71606;SDS011;60641;53.556;9.914;2023-03-11T16:18:02;5.30;;;1.00;;
71606;SDS011;60641;53.556;9.914;2023-03-11T16:23:11;5.70;;;1.00;;
71606;SDS011;60641;53.556;9.914;2023-03-11T16:25:41;5.50;;;0.90;;
71606;SDS011;60641;53.556;9.914;2023-03-11T16:28:09;6.90;;;1.00;;
71606;SDS011;60641;53.556;9.914;2023-03-11T16:30:38;4.20;;;1.00;;
71606;SDS011;60641;53.556;9.914;2023-03-11T16:33:05;7.50;;;1.20;;
71606;SDS011;60641;53.556;9.914;2023-03-11T16:35:34;3.60;;;0.80;;
71606;SDS011;60641;53.556;9.914;2023-03-11T16:38:01;4.50;;;0.90;;
71606;SDS011;60641;53.556;9.914;2023-03-11T16:40:27;4.10;;;0.90;;